Time;durP1;ratioP1;P1;durP2;ratioP2;P2;SDS_P1;SDS_P2;PMS_P1;PMS_P2;Temp;Humidity;BMP_temperature;BMP_pressure;BME280_temperature;BME280_humidity;BME280_pressure;Samples;Min_cycle;Max_cycle;Signal;HPM_P1;HPM_P2
2023/01/22 00:00:56;;;;;;;26.05;13.43;;;;;;;0.27;86.84;103275.03;5013455;28;20028;-61
2023/01/22 00:03:22;;;;;;;22.33;12.57;;;;;;;0.36;87.22;103272.34;5013464;28;20034;-61
2023/01/22 00:05:49;;;;;;;22.95;12.90;;;;;;;0.39;86.58;103283.03;5013696;28;20113;-61
2023/01/22 00:08:14;;;;;;;24.92;13.68;;;;;;;0.34;86.76;103292.09;5013604;28;20036;-59
2023/01/22 00:10:39;;;;;;;22.77;13.23;;;;;;;0.31;87.26;103284.03;5013483;28;20096;-60
2023/01/22 00:13:05;;;;;;;21.35;12.27;;;;;;;0.30;87.71;103287.38;5013336;28;20061;-61
2023/01/22 00:15:30;;;;;;;23.00;12.70;;;;;;;0.24;87.33;103291.25;5013492;28;20061;-61
2023/01/22 00:17:56;;;;;;;22.80;13.00;;;;;;;0.27;88.23;103292.31;5013263;28;20036;-61
2023/01/22 00:20:21;;;;;;;24.55;14.00;;;;;;;0.25;88.21;103289.56;5012977;28;20475;-61
2023/01/22 00:22:46;;;;;;;23.58;13.73;;;;;;;0.23;87.96;103293.72;4995079;28;20026;-61
2023/01/22 00:25:12;;;;;;;26.08;13.43;;;;;;;0.20;88.05;103296.94;5013017;28;20476;-61
2023/01/22 00:27:37;;;;;;;26.08;14.05;;;;;;;0.12;88.65;103294.41;5013162;28;20049;-60
2023/01/22 00:30:04;;;;;;;28.02;14.52;;;;;;;0.08;88.54;103282.81;4995650;28;20034;-61
2023/01/22 00:32:29;;;;;;;24.48;12.68;;;;;;;0.09;88.01;103287.25;5013242;28;20037;-61
2023/01/22 00:34:54;;;;;;;23.20;12.60;;;;;;;0.13;88.46;103280.63;5012992;28;20036;-61
2023/01/22 00:37:20;;;;;;;23.20;13.38;;;;;;;0.07;87.93;103272.28;5013053;28;20434;-61
2023/01/22 00:39:45;;;;;;;24.33;14.05;;;;;;;0.06;87.94;103278.25;5013106;28;20065;-61
2023/01/22 00:42:11;;;;;;;25.67;14.25;;;;;;;0.04;88.02;103274.59;5011747;28;20049;-60
2023/01/22 00:44:36;;;;;;;24.30;13.18;;;;;;;0.05;88.08;103274.75;5012999;28;20384;-61
2023/01/22 00:47:02;;;;;;;24.38;13.45;;;;;;;0.09;88.05;103274.25;5013237;28;20109;-61
2023/01/22 00:49:27;;;;;;;23.58;13.60;;;;;;;0.08;88.26;103259.41;5012839;28;20076;-60
2023/01/22 00:51:52;;;;;;;25.38;14.40;;;;;;;0.15;87.49;103272.22;5012590;28;20080;-60
2023/01/22 00:54:18;;;;;;;23.48;13.13;;;;;;;0.13;87.63;103268.56;5013205;28;20034;-60
2023/01/22 00:56:43;;;;;;;23.02;13.82;;;;;;;0.16;87.20;103257.53;5012873;28;20041;-61
2023/01/22 00:59:09;;;;;;;24.40;14.20;;;;;;;0.13;87.53;103267.63;5012805;28;20084;-61
2023/01/22 01:01:36;;;;;;;25.50;13.85;;;;;;;0.06;87.54;103268.78;5012625;28;20495;-61
2023/01/22 01:04:02;;;;;;;25.23;13.73;;;;;;;0.02;87.74;103266.66;5013055;28;20026;-61
2023/01/22 01:06:27;;;;;;;23.98;13.68;;;;;;;-0.02;87.93;103256.75;5012871;28;20030;-61
2023/01/22 01:08:53;;;;;;;26.60;14.25;;;;;;;-0.06;88.32;103252.03;5012780;28;20075;-61
2023/01/22 01:11:21;;;;;;;23.83;13.02;;;;;;;0.03;88.14;103259.78;5012916;28;20530;-61
2023/01/22 01:13:47;;;;;;;24.40;13.50;;;;;;;0.08;88.12;103250.72;5012831;28;20037;-61
2023/01/22 01:16:18;;;;;;;22.77;13.38;;;;;;;0.05;87.45;103255.66;5012995;28;20120;-61
2023/01/22 01:18:44;;;;;;;23.08;13.27;;;;;;;0.02;88.03;103253.66;5012640;28;20022;-60
2023/01/22 01:21:11;;;;;;;24.75;13.85;;;;;;;0.01;87.48;103245.75;5012620;28;20029;-61
2023/01/22 01:23:36;;;;;;;24.25;14.07;;;;;;;0.05;87.73;103251.34;5012890;28;20029;-61
2023/01/22 01:26:07;;;;;;;23.67;12.98;;;;;;;0.04;88.00;103256.41;5012639;28;20482;-61
2023/01/22 01:28:34;;;;;;;24.45;13.68;;;;;;;0.01;87.79;103258.75;5012567;28;20153;-61
2023/01/22 01:31:05;;;;;;;22.42;13.48;;;;;;;-0.01;87.70;103243.88;5012602;28;20025;-60
2023/01/22 01:33:31;;;;;;;23.17;13.05;;;;;;;-0.06;87.82;103249.44;5012383;28;20096;-61
2023/01/22 01:36:01;;;;;;;24.13;13.65;;;;;;;-0.16;87.99;103241.59;5015544;28;20125;-60
2023/01/22 01:38:26;;;;;;;24.38;13.45;;;;;;;-0.20;88.70;103245.59;5016367;28;20033;-61
2023/01/22 01:40:51;;;;;;;23.23;13.73;;;;;;;-0.21;88.86;103238.56;5016033;28;20038;-61
2023/01/22 01:43:17;;;;;;;25.83;13.85;;;;;;;-0.23;88.59;103234.00;5016164;28;20041;-61
2023/01/22 01:45:43;;;;;;;22.38;13.48;;;;;;;-0.30;88.86;103228.25;5015900;28;20034;-61
2023/01/22 01:48:26;;;;;;;22.77;13.15;;;;;;;-0.33;89.58;103227.03;5015861;28;20022;-61
2023/01/22 01:51:06;;;;;;;23.52;13.45;;;;;;;-0.33;89.74;103216.66;5016030;28;20053;-61
2023/01/22 01:53:32;;;;;;;20.15;12.18;;;;;;;-0.38;89.87;103218.81;5015747;28;20169;-61
2023/01/22 01:56:00;;;;;;;22.75;13.13;;;;;;;-0.37;89.46;103212.84;5015767;28;20037;-61
2023/01/22 01:58:28;;;;;;;23.33;12.63;;;;;;;-0.36;89.97;103214.66;5015875;28;20053;-60
2023/01/22 02:01:00;;;;;;;22.05;13.10;;;;;;;-0.37;90.14;103207.66;5015642;28;20112;-60
2023/01/22 02:03:27;;;;;;;22.38;13.00;;;;;;;-0.39;90.20;103205.66;5015769;28;20026;-62
2023/01/22 02:05:52;;;;;;;23.05;12.98;;;;;;;-0.46;89.96;103191.22;5015652;28;20483;-61
2023/01/22 02:08:17;;;;;;;22.25;12.65;;;;;;;-0.42;90.36;103206.31;5015500;28;20033;-61
2023/01/22 02:10:43;;;;;;;24.25;13.43;;;;;;;-0.38;90.14;103200.63;5015479;28;20057;-61
2023/01/22 02:13:13;;;;;;;20.98;12.60;;;;;;;-0.36;89.39;103196.47;5015417;28;20030;-61
2023/01/22 02:15:41;;;;;;;22.83;13.30;;;;;;;-0.40;89.78;103185.66;5015394;28;20029;-60
2023/01/22 02:18:06;;;;;;;24.17;14.05;;;;;;;-0.41;90.06;103195.16;5015341;28;20076;-61
2023/01/22 02:20:34;;;;;;;20.90;11.73;;;;;;;-0.40;90.37;103189.16;5015019;28;20030;-61
2023/01/22 02:22:59;;;;;;;20.77;12.65;;;;;;;-0.34;90.42;103196.63;5001350;28;20030;-61
2023/01/22 02:25:25;;;;;;;21.85;12.65;;;;;;;-0.33;89.64;103199.38;4995540;28;20026;-61
2023/01/22 02:27:50;;;;;;;20.70;11.75;;;;;;;-0.32;89.86;103202.88;4995591;28;20476;-61
2023/01/22 02:30:16;;;;;;;22.25;11.85;;;;;;;-0.32;89.42;103203.78;4995539;28;20038;-61
2023/01/22 02:32:41;;;;;;;23.75;12.85;;;;;;;-0.36;89.00;103201.66;4978265;28;20077;-61
2023/01/22 02:35:07;;;;;;;21.17;12.88;;;;;;;-0.33;89.01;103201.97;4995471;28;20039;-61
2023/01/22 02:37:32;;;;;;;20.63;11.60;;;;;;;-0.32;89.73;103202.88;4995522;28;20109;-61
2023/01/22 02:39:57;;;;;;;19.85;11.82;;;;;;;-0.34;89.13;103204.44;4995529;28;20065;-61
2023/01/22 02:42:23;;;;;;;22.92;12.20;;;;;;;-0.36;89.77;103201.66;4995354;28;20506;-61
2023/01/22 02:44:50;;;;;;;21.98;12.40;;;;;;;-0.35;90.06;103205.19;4995183;28;20513;-61
2023/01/22 02:47:15;;;;;;;24.00;13.05;;;;;;;-0.32;90.07;103205.47;4994726;28;20026;-61
2023/01/22 02:49:41;;;;;;;22.00;12.43;;;;;;;-0.23;90.16;103192.41;4995213;28;20116;-61
2023/01/22 02:52:06;;;;;;;21.95;11.35;;;;;;;-0.21;90.17;103197.00;4994865;28;20092;-61
2023/01/22 02:54:32;;;;;;;20.58;12.10;;;;;;;-0.20;90.23;103211.81;4995135;28;20431;-61
2023/01/22 02:56:57;;;;;;;21.15;12.50;;;;;;;-0.16;89.88;103206.13;4995121;28;20030;-61
2023/01/22 02:59:22;;;;;;;21.50;12.77;;;;;;;-0.11;90.12;103216.94;4994972;28;20535;-61
2023/01/22 03:01:48;;;;;;;21.65;12.55;;;;;;;-0.09;89.92;103218.88;4994846;28;20154;-61
2023/01/22 03:04:13;;;;;;;21.77;12.25;;;;;;;-0.09;90.03;103199.78;4994921;28;20061;-61
2023/01/22 03:06:42;;;;;;;21.65;12.10;;;;;;;-0.06;90.00;103200.97;4994919;28;20113;-61
2023/01/22 03:09:08;;;;;;;22.27;12.88;;;;;;;-0.03;90.07;103215.94;4994793;28;20061;-61
2023/01/22 03:11:35;;;;;;;20.65;12.10;;;;;;;-0.02;89.87;103202.19;4995097;28;20101;-62
2023/01/22 03:22:14;;;;;;;19.10;11.85;;;;;;;0.11;89.15;103199.91;4994692;28;20118;-61
2023/01/22 03:24:40;;;;;;;18.88;12.02;;;;;;;0.13;89.38;103194.84;4994544;28;20444;-61
2023/01/22 03:27:06;;;;;;;21.45;11.60;;;;;;;0.11;89.57;103197.31;4994467;28;20022;-61
2023/01/22 03:29:32;;;;;;;21.67;12.02;;;;;;;0.12;89.59;103193.94;4994453;28;20392;-61
2023/01/22 03:31:57;;;;;;;21.55;12.50;;;;;;;0.11;89.41;103189.53;4994369;28;20022;-61
2023/01/22 03:34:24;;;;;;;21.60;12.00;;;;;;;0.05;89.66;103175.06;4994340;28;20480;-61
2023/01/22 03:36:49;;;;;;;20.10;11.80;;;;;;;0.05;90.45;103177.69;4994288;28;20492;-61
2023/01/22 03:39:15;;;;;;;19.05;11.20;;;;;;;0.05;90.53;103168.19;4994220;28;20110;-61
2023/01/22 03:41:40;;;;;;;23.00;11.95;;;;;;;0.13;90.74;103166.25;4994144;28;20465;-60
2023/01/22 03:44:10;;;;;;;19.70;12.43;;;;;;;0.17;90.30;103153.69;4994211;28;20045;-61
2023/01/22 03:46:36;;;;;;;20.20;11.98;;;;;;;0.13;89.54;103153.25;4994079;28;20018;-62
2023/01/22 03:49:02;;;;;;;17.30;11.88;;;;;;;0.03;89.73;103146.31;4976656;28;20114;-60
2023/01/22 03:51:28;;;;;;;20.25;11.43;;;;;;;0.03;90.18;103159.31;4994255;28;20132;-60
2023/01/22 03:53:53;;;;;;;18.45;11.27;;;;;;;0.03;89.49;103159.31;4993847;28;20546;-60
2023/01/22 03:56:21;;;;;;;19.33;12.15;;;;;;;-0.04;89.46;103165.66;4993968;28;20027;-60
2023/01/22 03:58:47;;;;;;;19.83;11.93;;;;;;;-0.04;89.30;103169.97;4993611;28;20030;-61
2023/01/22 04:01:18;;;;;;;19.65;11.45;;;;;;;-0.07;89.44;103164.47;4993844;28;20038;-60
2023/01/22 04:03:44;;;;;;;21.85;11.82;;;;;;;-0.10;89.09;103169.38;4993913;28;20030;-60
2023/01/22 04:06:11;;;;;;;19.40;11.75;;;;;;;-0.11;89.75;103164.97;4993834;28;20034;-60
2023/01/22 04:08:38;;;;;;;21.58;11.48;;;;;;;-0.11;89.17;103170.16;4994284;28;20030;-60
2023/01/22 04:11:04;;;;;;;18.50;11.15;;;;;;;-0.10;89.00;103165.09;4993880;28;20045;-60
2023/01/22 04:13:31;;;;;;;20.67;11.70;;;;;;;-0.06;88.97;103167.19;4993732;28;20030;-60
2023/01/22 04:15:57;;;;;;;20.27;11.90;;;;;;;-0.05;88.81;103170.69;4993710;28;20121;-60
2023/01/22 04:18:22;;;;;;;17.27;10.40;;;;;;;-0.03;89.48;103170.09;4993602;28;20062;-60
2023/01/22 04:20:49;;;;;;;18.80;11.18;;;;;;;0.02;89.70;103174.78;4993368;28;20113;-61
2023/01/22 04:23:15;;;;;;;20.38;10.88;;;;;;;0.03;89.38;103171.41;4993840;28;20154;-61
2023/01/22 04:25:41;;;;;;;19.98;11.52;;;;;;;0.02;89.35;103164.38;4993498;28;20022;-61
2023/01/22 04:28:07;;;;;;;16.75;11.43;;;;;;;-0.02;89.46;103165.78;4993537;28;20029;-60
2023/01/22 04:30:33;;;;;;;19.90;11.73;;;;;;;-0.08;89.83;103160.97;4993393;28;20030;-61
2023/01/22 04:32:58;;;;;;;19.83;12.13;;;;;;;-0.06;90.40;103163.69;4993471;28;20041;-60
2023/01/22 04:35:24;;;;;;;19.38;10.68;;;;;;;-0.03;90.36;103156.19;4993273;28;20117;-60
2023/01/22 04:37:49;;;;;;;19.45;11.70;;;;;;;-0.07;90.70;103157.59;4993424;28;20022;-61
2023/01/22 04:40:15;;;;;;;20.33;10.95;;;;;;;-0.17;90.96;103167.94;4993432;28;20113;-61
2023/01/22 04:42:40;;;;;;;19.73;11.55;;;;;;;-0.11;91.60;103163.28;4993460;28;20115;-60
2023/01/22 04:45:07;;;;;;;18.25;11.50;;;;;;;-0.05;91.58;103157.72;4993485;28;20514;-60
2023/01/22 04:47:32;;;;;;;17.77;10.95;;;;;;;-0.03;91.82;103157.09;4993209;28;20031;-60
2023/01/22 04:49:57;;;;;;;19.92;11.98;;;;;;;0.03;91.58;103150.63;4993283;28;20041;-60
2023/01/22 04:52:23;;;;;;;18.65;11.25;;;;;;;0.04;91.78;103147.22;4993003;28;20512;-61
2023/01/22 04:54:50;;;;;;;17.85;11.27;;;;;;;0.08;91.40;103155.44;4993329;28;20061;-61
2023/01/22 04:57:16;;;;;;;21.15;11.32;;;;;;;0.11;91.30;103155.72;4993497;28;20030;-61
2023/01/22 04:59:41;;;;;;;21.60;12.18;;;;;;;0.08;91.75;103151.94;4993227;28;20033;-60
2023/01/22 05:02:07;;;;;;;17.40;10.50;;;;;;;0.07;91.19;103152.72;4993480;28;20427;-60
2023/01/22 05:04:32;;;;;;;16.90;10.77;;;;;;;0.05;91.46;103157.78;4993212;28;20030;-60
2023/01/22 05:06:57;;;;;;;19.67;11.10;;;;;;;0.07;91.27;103153.63;4975846;28;20050;-60
2023/01/22 05:09:24;;;;;;;16.85;11.00;;;;;;;0.04;91.35;103152.44;4993905;28;20121;-60
2023/01/22 05:11:49;;;;;;;19.85;11.32;;;;;;;0.04;91.41;103152.44;4997190;28;20033;-61
2023/01/22 05:14:15;;;;;;;16.27;10.27;;;;;;;-0.01;90.85;103144.22;4996987;28;20471;-61
2023/01/22 05:16:40;;;;;;;17.95;10.63;;;;;;;0.02;91.77;103152.31;4996961;28;20088;-60
2023/01/22 05:19:06;;;;;;;19.10;10.98;;;;;;;0.05;91.58;103151.69;4997027;28;20061;-60
2023/01/22 05:21:31;;;;;;;17.08;10.38;;;;;;;0.11;91.08;103162.63;4996615;28;20030;-61
2023/01/22 05:23:57;;;;;;;20.60;10.43;;;;;;;0.13;90.96;103155.84;4996797;28;20476;-60
2023/01/22 05:26:22;;;;;;;16.92;11.35;;;;;;;0.08;90.44;103157.13;4996669;28;20026;-61
2023/01/22 05:28:48;;;;;;;15.25;9.80;;;;;;;0.05;90.00;103157.78;4996717;28;20161;-60
2023/01/22 05:31:13;;;;;;;18.38;9.98;;;;;;;-0.02;89.88;103156.31;4996548;28;20080;-61
2023/01/22 05:33:39;;;;;;;16.55;10.55;;;;;;;-0.01;90.34;103171.13;4996627;28;20018;-61
2023/01/22 05:36:05;;;;;;;17.05;10.27;;;;;;;-0.02;90.35;103164.09;4996594;28;20030;-61
2023/01/22 05:38:31;;;;;;;18.70;10.48;;;;;;;0.06;90.72;103169.09;4996476;28;20030;-61
2023/01/22 05:40:56;;;;;;;17.33;10.25;;;;;;;0.08;90.80;103168.44;4962857;28;20088;-61
2023/01/22 05:43:22;;;;;;;16.73;10.10;;;;;;;0.00;89.78;103166.88;4996484;28;20018;-61
2023/01/22 05:45:47;;;;;;;18.77;10.35;;;;;;;-0.05;90.19;103173.31;4996428;28;20030;-62
2023/01/22 05:48:13;;;;;;;16.83;9.80;;;;;;;-0.03;90.76;103176.97;4996629;28;20031;-61
2023/01/22 05:50:40;;;;;;;18.17;10.45;;;;;;;0.00;90.48;103177.25;4996026;28;20054;-61
2023/01/22 05:53:06;;;;;;;19.00;10.60;;;;;;;0.06;90.50;103187.28;4996034;28;20081;-61
2023/01/22 05:55:33;;;;;;;16.10;10.35;;;;;;;0.06;90.28;103177.81;4996159;28;20065;-61
2023/01/22 05:57:58;;;;;;;17.05;10.30;;;;;;;0.10;90.55;103173.78;4996075;28;20097;-61
2023/01/22 06:00:24;;;;;;;18.10;10.45;;;;;;;0.14;90.02;103183.69;4996118;28;20479;-61
2023/01/22 06:02:54;;;;;;;18.50;11.07;;;;;;;0.15;90.17;103180.31;4996151;28;20078;-62
2023/01/22 06:05:20;;;;;;;17.25;9.70;;;;;;;0.16;89.94;103184.72;4995980;28;20026;-61
2023/01/22 06:07:45;;;;;;;14.98;9.70;;;;;;;0.18;90.41;103185.81;4996073;28;20034;-61
2023/01/22 06:10:10;;;;;;;16.50;11.25;;;;;;;0.19;90.15;103178.13;4995866;28;20042;-61
2023/01/22 06:12:36;;;;;;;18.67;10.40;;;;;;;0.25;90.31;103178.66;4995891;28;20034;-61
2023/01/22 06:15:01;;;;;;;17.35;11.02;;;;;;;0.27;90.26;103171.03;4995827;28;20023;-61
2023/01/22 06:17:26;;;;;;;17.08;10.13;;;;;;;0.24;90.06;103173.34;4995778;28;20498;-61
2023/01/22 06:19:52;;;;;;;17.70;10.55;;;;;;;0.23;89.83;103179.31;4995688;28;20477;-61
2023/01/22 06:22:18;;;;;;;16.38;10.25;;;;;;;0.19;90.49;103175.53;4994652;28;20120;-61
2023/01/22 06:24:43;;;;;;;14.57;9.95;;;;;;;0.15;90.43;103178.63;4995998;28;20030;-61
2023/01/22 06:27:09;;;;;;;17.92;11.13;;;;;;;0.21;90.97;103181.78;4995848;28;20496;-61
2023/01/22 06:29:34;;;;;;;18.83;11.38;;;;;;;0.25;90.10;103185.56;4995839;28;20038;-61
2023/01/22 06:31:59;;;;;;;16.83;10.38;;;;;;;0.31;90.75;103190.41;4995463;28;20038;-61
2023/01/22 06:34:25;;;;;;;19.52;10.77;;;;;;;0.33;90.39;103194.97;4995699;28;20031;-61
2023/01/22 06:36:50;;;;;;;18.75;11.20;;;;;;;0.32;90.23;103180.13;4995837;28;20034;-61
2023/01/22 06:39:15;;;;;;;18.40;11.10;;;;;;;0.36;90.49;103181.34;4995572;28;20026;-61
2023/01/22 06:41:41;;;;;;;17.73;11.32;;;;;;;0.35;89.92;103182.13;4995334;28;20453;-61
2023/01/22 06:44:06;;;;;;;17.90;11.25;;;;;;;0.30;90.20;103179.09;4995256;28;20030;-61
2023/01/22 06:46:31;;;;;;;18.33;10.40;;;;;;;0.29;90.34;103176.34;4995263;28;20389;-61
2023/01/22 06:49:00;;;;;;;18.42;11.52;;;;;;;0.26;90.66;103182.22;4995104;28;20105;-61
2023/01/22 06:51:26;;;;;;;18.70;11.82;;;;;;;0.25;90.74;103182.97;4994891;28;20400;-61
2023/01/22 06:53:51;;;;;;;18.95;11.52;;;;;;;0.25;90.57;103185.56;4994976;28;20121;-61
2023/01/22 06:56:16;;;;;;;21.30;10.93;;;;;;;0.30;90.91;103192.09;4994978;28;20030;-61
2023/01/22 06:58:42;;;;;;;19.27;11.20;;;;;;;0.35;90.48;103197.72;4994946;28;20062;-61
2023/01/22 07:01:08;;;;;;;17.73;10.68;;;;;;;0.40;90.41;103194.75;4994928;28;20096;-61
2023/01/22 07:03:34;;;;;;;18.90;11.18;;;;;;;0.42;90.13;103194.88;4995174;28;20117;-61
2023/01/22 07:06:02;;;;;;;18.52;11.43;;;;;;;0.38;90.44;103193.69;4994962;28;20480;-61
2023/01/22 07:08:29;;;;;;;19.52;11.48;;;;;;;0.38;90.74;103193.69;4995168;28;20026;-61
2023/01/22 07:10:55;;;;;;;16.10;10.32;;;;;;;0.42;91.03;103194.88;4994841;28;20042;-61
2023/01/22 07:13:20;;;;;;;16.65;10.70;;;;;;;0.41;90.11;103201.75;4994773;28;20014;-61
2023/01/22 07:15:46;;;;;;;18.67;10.77;;;;;;;0.42;91.00;103197.47;4994641;28;20029;-61
2023/01/22 07:18:13;;;;;;;18.80;11.10;;;;;;;0.39;90.54;103195.53;4994705;28;20399;-61
2023/01/22 07:20:41;;;;;;;16.95;10.30;;;;;;;0.38;91.35;103187.56;4994217;28;20439;-61
2023/01/22 07:23:10;;;;;;;17.13;10.40;;;;;;;0.43;91.14;103199.31;4994636;28;20037;-61
2023/01/22 07:25:36;;;;;;;19.30;11.10;;;;;;;0.40;90.67;103196.44;4994513;28;20552;-60
2023/01/22 07:28:02;;;;;;;19.80;11.00;;;;;;;0.39;90.26;103202.41;4994406;28;20122;-61
2023/01/22 07:30:28;;;;;;;16.63;10.52;;;;;;;0.41;90.95;103203.47;4994373;28;20109;-60
2023/01/22 07:32:58;;;;;;;17.42;10.68;;;;;;;0.47;91.08;103204.00;4994294;28;20058;-60
2023/01/22 07:35:23;;;;;;;18.65;10.48;;;;;;;0.49;90.67;103213.78;4994735;28;20034;-61
2023/01/22 07:37:56;;;;;;;16.75;10.70;;;;;;;0.48;90.48;103204.16;4994260;28;20037;-61
2023/01/22 07:40:23;;;;;;;19.05;10.93;;;;;;;0.50;90.43;103205.19;4976771;28;20053;-60
2023/01/22 07:42:49;;;;;;;18.95;11.15;;;;;;;0.50;90.30;103202.59;4994092;28;20105;-61
2023/01/22 07:45:14;;;;;;;20.63;11.13;;;;;;;0.45;90.05;103200.34;4994234;28;20113;-61
2023/01/22 07:47:40;;;;;;;16.98;9.93;;;;;;;0.47;90.91;103204.94;4994148;28;20110;-61
2023/01/22 07:50:06;;;;;;;15.75;10.60;;;;;;;0.46;90.73;103199.56;4994382;28;20432;-60
2023/01/22 07:52:31;;;;;;;16.33;10.95;;;;;;;0.45;90.87;103209.06;4993633;28;20090;-61
2023/01/22 07:54:57;;;;;;;15.02;9.90;;;;;;;0.50;91.07;103210.38;4994062;28;20026;-61
2023/01/22 07:57:22;;;;;;;16.02;10.60;;;;;;;0.55;90.69;103208.19;4994198;28;20175;-60
2023/01/22 07:59:47;;;;;;;15.15;9.60;;;;;;;0.61;90.48;103208.75;4993867;28;20034;-60
2023/01/22 08:02:14;;;;;;;18.17;10.05;;;;;;;0.68;90.33;103218.00;4994135;28;20068;-61
2023/01/22 08:04:42;;;;;;;15.82;10.05;;;;;;;0.71;90.00;103224.38;4993832;28;20022;-61
2023/01/22 08:07:15;;;;;;;14.90;9.32;;;;;;;0.67;90.05;103219.69;4994088;28;20030;-60
2023/01/22 08:09:40;;;;;;;15.32;9.07;;;;;;;0.69;90.47;103217.25;4994092;28;20038;-61
2023/01/22 08:12:06;;;;;;;15.60;9.70;;;;;;;0.69;90.04;103212.94;4993955;28;20062;-61
2023/01/22 08:14:31;;;;;;;15.02;9.25;;;;;;;0.69;90.33;103215.56;4993749;28;20037;-62
2023/01/22 08:16:57;;;;;;;14.68;9.18;;;;;;;0.72;91.00;103213.19;4976404;28;20034;-61
2023/01/22 08:19:22;;;;;;;15.88;9.25;;;;;;;0.76;90.04;103217.00;4993502;28;20476;-61
2023/01/22 08:21:47;;;;;;;19.55;9.60;;;;;;;0.74;90.56;103218.56;4993373;28;20552;-61
2023/01/22 08:24:13;;;;;;;15.05;9.25;;;;;;;0.78;90.32;103224.94;4993500;28;20093;-61
2023/01/22 08:26:38;;;;;;;14.18;9.88;;;;;;;0.80;90.28;103229.50;4993392;28;20477;-61
2023/01/22 08:29:04;;;;;;;17.40;9.93;;;;;;;0.82;90.01;103227.06;4993484;28;20061;-61
2023/01/22 08:31:30;;;;;;;13.52;9.30;;;;;;;0.83;89.88;103234.06;4993512;28;20037;-61
2023/01/22 08:33:59;;;;;;;15.15;9.40;;;;;;;0.87;90.06;103251.78;4993366;28;20018;-61
2023/01/22 08:36:25;;;;;;;12.95;8.68;;;;;;;0.94;90.17;103242.06;4993450;28;20559;-61
2023/01/22 08:38:50;;;;;;;13.73;8.50;;;;;;;1.00;90.08;103241.69;4976033;28;20026;-61
2023/01/22 08:41:16;;;;;;;16.02;9.18;;;;;;;1.02;89.46;103236.59;4993347;28;20126;-61
2023/01/22 08:43:41;;;;;;;13.45;8.68;;;;;;;0.99;89.43;103227.75;4992146;28;20464;-61
2023/01/22 08:46:06;;;;;;;15.95;8.93;;;;;;;1.03;89.20;103228.94;4996985;28;20085;-62
2023/01/22 08:48:32;;;;;;;12.13;8.38;;;;;;;1.04;89.59;103235.06;4997471;28;20081;-61
2023/01/22 08:51:01;;;;;;;15.45;8.70;;;;;;;1.07;89.76;103227.50;4997156;28;20106;-62
2023/01/22 08:53:27;;;;;;;14.00;8.32;;;;;;;1.07;89.73;103230.09;4997180;28;20042;-62
2023/01/22 08:55:52;;;;;;;11.77;8.05;;;;;;;1.06;89.29;103233.47;4997479;28;20023;-61
2023/01/22 08:58:20;;;;;;;13.80;8.30;;;;;;;1.03;89.55;103233.19;4997465;28;20387;-62
2023/01/22 09:00:46;;;;;;;12.90;8.55;;;;;;;1.01;89.44;103240.88;4997028;28;20033;-62
2023/01/22 09:03:12;;;;;;;11.55;7.53;;;;;;;0.99;89.52;103235.56;4997369;28;20034;-62
2023/01/22 09:05:39;;;;;;;13.15;8.32;;;;;;;0.99;90.06;103235.56;4997365;28;20019;-62
2023/01/22 09:08:06;;;;;;;13.98;8.55;;;;;;;1.03;89.24;103239.34;4997314;28;20031;-62
2023/01/22 09:10:31;;;;;;;14.52;8.63;;;;;;;0.95;89.78;103230.84;4996949;28;20037;-62
2023/01/22 09:12:59;;;;;;;12.68;8.35;;;;;;;1.04;89.34;103235.06;4996893;28;20026;-62
2023/01/22 09:15:24;;;;;;;13.65;8.75;;;;;;;1.02;89.72;103232.28;4997129;28;20452;-62
2023/01/22 09:17:49;;;;;;;13.45;8.40;;;;;;;1.04;89.66;103227.25;4996799;28;20034;-62
2023/01/22 09:20:15;;;;;;;14.20;8.60;;;;;;;1.10;89.69;103248.59;4996758;28;20022;-62
2023/01/22 09:22:44;;;;;;;15.23;9.70;;;;;;;1.05;89.03;103247.28;4996881;28;20037;-62
2023/01/22 09:25:09;;;;;;;13.27;8.05;;;;;;;1.05;89.15;103244.69;4996804;28;20019;-63
2023/01/22 09:27:35;;;;;;;13.13;7.97;;;;;;;1.05;89.30;103247.28;4996981;28;20030;-62
2023/01/22 09:30:00;;;;;;;14.73;7.95;;;;;;;1.04;89.72;103248.97;4996694;28;20030;-62
2023/01/22 09:32:26;;;;;;;14.00;8.02;;;;;;;1.05;89.34;103248.19;4996522;28;20026;-62
2023/01/22 09:34:51;;;;;;;12.85;8.55;;;;;;;1.03;89.32;103247.16;4996541;28;20034;-63
2023/01/22 09:37:17;;;;;;;10.95;7.35;;;;;;;1.11;89.80;103248.72;4996463;28;20476;-62
2023/01/22 09:39:42;;;;;;;13.27;8.50;;;;;;;1.11;89.66;103247.81;4996271;28;20121;-63
2023/01/22 09:42:13;;;;;;;15.75;8.38;;;;;;;1.14;89.98;103245.47;4996527;28;20544;-62
2023/01/22 09:44:43;;;;;;;12.25;8.02;;;;;;;1.11;89.23;103256.53;4996540;28;20040;-63
2023/01/22 09:47:13;;;;;;;14.07;8.98;;;;;;;1.12;89.37;103260.06;4996541;28;20037;-63
2023/01/22 09:49:54;;;;;;;13.18;9.02;;;;;;;1.13;89.20;103262.78;4996612;28;20027;-66
2023/01/22 09:52:25;;;;;;;12.20;8.20;;;;;;;1.09;89.37;103258.09;4994751;28;20531;-63
2023/01/22 09:54:50;;;;;;;13.27;8.25;;;;;;;1.09;88.93;103258.09;4996510;28;20156;-63
2023/01/22 09:57:16;;;;;;;12.95;8.55;;;;;;;1.10;89.27;103252.09;4996083;28;20548;-63
2023/01/22 09:59:48;;;;;;;14.15;8.38;;;;;;;1.13;89.50;103249.78;4996080;28;20026;-64
2023/01/22 10:02:28;;;;;;;;;;;;;;;1.21;89.61;103246.16;4996749;28;20074;-63
2023/01/22 10:05:04;;;;;;;14.73;8.05;;;;;;;1.19;89.13;103247.69;4996141;28;19956;-63
2023/01/22 10:07:40;;;;;;;12.20;7.85;;;;;;;1.16;89.53;103257.88;4996262;28;20041;-63
2023/01/22 10:10:24;;;;;;;14.88;9.02;;;;;;;1.15;89.70;103257.72;4996073;28;20029;-63
2023/01/22 10:12:56;;;;;;;14.55;8.50;;;;;;;1.18;89.88;103260.59;4996164;28;20117;-63
2023/01/22 10:15:23;;;;;;;13.65;8.55;;;;;;;1.18;89.65;103258.91;4995840;28;20033;-64
2023/01/22 10:17:49;;;;;;;13.57;8.70;;;;;;;1.20;89.30;103265.16;4996024;28;20385;-64
2023/01/22 10:20:17;;;;;;;15.00;9.15;;;;;;;1.21;89.32;103259.19;4995598;28;20032;-64
2023/01/22 10:22:43;;;;;;;17.00;9.85;;;;;;;1.26;89.22;103270.00;4995667;28;20026;-65
2023/01/22 10:25:13;;;;;;;15.73;9.07;;;;;;;1.27;89.34;103263.09;4995703;28;20419;-64
2023/01/22 10:27:39;;;;;;;12.93;7.88;;;;;;;1.28;88.99;103259.69;4995859;28;20018;-63
2023/01/22 10:30:20;;;;;;;16.85;8.07;;;;;;;1.35;89.16;103262.97;4995778;28;20057;-64
2023/01/22 10:33:05;;;;;;;13.07;8.27;;;;;;;1.36;89.31;103248.25;4995608;28;20033;-64
2023/01/22 10:35:41;;;;;;;14.10;8.05;;;;;;;1.43;88.49;103255.81;4995777;28;20026;-64
2023/01/22 10:38:23;;;;;;;11.00;7.55;;;;;;;1.42;88.74;103249.72;4995220;28;20034;-63
2023/01/22 10:41:00;;;;;;;10.98;7.95;;;;;;;1.39;88.61;103253.75;4995390;28;20033;-63
2023/01/22 10:43:36;;;;;;;11.40;7.78;;;;;;;1.38;88.47;103251.91;4995338;28;20110;-63
2023/01/22 10:46:14;;;;;;;15.35;8.00;;;;;;;1.40;88.52;103252.94;4995162;28;20469;-64
2023/01/22 10:48:40;;;;;;;9.77;7.13;;;;;;;1.43;88.82;103261.94;4995119;28;20030;-63
2023/01/22 10:51:19;;;;;;;10.27;7.18;;;;;;;1.45;88.77;103254.25;4994912;28;20507;-63
2023/01/22 10:53:52;;;;;;;10.77;7.47;;;;;;;1.49;88.60;103259.84;4994796;28;20072;-64
2023/01/22 10:56:30;;;;;;;12.70;7.18;;;;;;;1.53;88.32;103263.66;4995006;28;20488;-64
2023/01/22 10:58:57;;;;;;;11.90;7.78;;;;;;;1.52;88.30;103267.03;4977513;28;20038;-63
2023/01/22 11:01:27;;;;;;;12.80;8.05;;;;;;;1.53;88.00;103268.84;4994877;28;20044;-64
2023/01/22 11:03:52;;;;;;;13.48;8.13;;;;;;;1.63;88.72;103262.75;4994635;28;20034;-63
2023/01/22 11:06:25;;;;;;;14.15;8.30;;;;;;;1.66;88.28;103245.66;4995049;28;20057;-64
2023/01/22 11:08:58;;;;;;;12.05;8.07;;;;;;;1.66;88.15;103245.66;4994103;28;20030;-64
2023/01/22 11:11:32;;;;;;;14.25;7.97;;;;;;;1.63;88.15;103248.03;4994682;28;20029;-64
2023/01/22 11:14:10;;;;;;;12.88;7.93;;;;;;;1.61;87.77;103240.84;4994712;28;20469;-64
2023/01/22 11:16:38;;;;;;;12.68;7.85;;;;;;;1.61;88.58;103240.84;4994590;28;20492;-65
2023/01/22 11:19:12;;;;;;;13.32;8.38;;;;;;;1.57;88.18;103242.28;4994412;28;20388;-63
2023/01/22 11:21:53;;;;;;;13.93;8.32;;;;;;;1.62;88.62;103235.75;4994530;28;20041;-64
2023/01/22 11:24:51;;;;;;;10.75;8.05;;;;;;;1.63;88.27;103241.91;4994439;28;20113;-65